createdAt,value
2018-12-11T00:00:52.341Z,15.20
2018-12-11T00:01:52.336Z,13.40
2018-12-11T00:02:52.299Z,13.70
2018-12-11T00:03:52.227Z,14.40
2018-12-11T00:04:52.214Z,18.10
2018-12-11T00:05:52.096Z,18.10
2018-12-11T00:06:52.096Z,13.30
2018-12-11T00:07:51.983Z,13.60
2018-12-11T00:08:51.973Z,15.30
2018-12-11T00:09:51.975Z,13.00
2018-12-11T00:10:51.861Z,12.30
2018-12-11T00:11:51.855Z,15.30
2018-12-11T00:12:51.731Z,10.60
2018-12-11T00:13:51.732Z,11.10
2018-12-11T00:14:51.736Z,14.70
2018-12-11T00:15:51.616Z,15.80
2018-12-11T00:16:51.612Z,12.90
2018-12-11T00:17:51.491Z,12.20
2018-12-11T00:18:51.502Z,10.90
2018-12-11T00:19:51.506Z,14.00
2018-12-11T00:20:51.372Z,11.90
2018-12-11T00:21:51.379Z,15.70
2018-12-11T00:22:51.252Z,14.50
2018-12-11T00:23:51.252Z,12.70
2018-12-11T00:24:51.133Z,11.00
2018-12-11T00:25:51.130Z,14.00
2018-12-11T00:26:51.142Z,15.60
2018-12-11T00:27:51.009Z,15.50
2018-12-11T00:28:51.010Z,11.20
2018-12-11T00:29:50.891Z,17.20
2018-12-11T00:30:50.888Z,19.00
2018-12-11T00:31:50.900Z,15.40
2018-12-11T00:32:50.771Z,15.40
2018-12-11T00:33:50.769Z,14.10
2018-12-11T00:34:50.651Z,19.70
2018-12-11T00:35:50.648Z,16.30
2018-12-11T00:36:50.652Z,14.50
2018-12-11T00:37:50.527Z,16.40
2018-12-11T00:38:50.532Z,12.00
2018-12-11T00:39:50.407Z,14.60
2018-12-11T00:40:50.406Z,15.60
2018-12-11T00:41:50.371Z,15.60
2018-12-11T00:42:50.286Z,16.40
2018-12-11T00:43:50.286Z,12.20
2018-12-11T00:44:50.165Z,17.30
2018-12-11T00:45:50.173Z,15.30
2018-12-11T00:46:50.048Z,12.90
2018-12-11T00:47:50.044Z,20.40
2018-12-11T00:48:50.054Z,15.80
2018-12-11T00:49:49.926Z,13.80
2018-12-11T00:50:49.924Z,16.50
2018-12-11T00:51:49.813Z,19.20
2018-12-11T00:52:49.809Z,12.80
2018-12-11T00:53:49.805Z,15.30
2018-12-11T00:54:49.683Z,14.20
2018-12-11T00:55:49.683Z,20.20
2018-12-11T00:56:49.569Z,14.60
2018-12-11T00:57:49.570Z,16.30
2018-12-11T00:58:49.530Z,15.00
2018-12-11T00:59:49.448Z,15.30
2018-12-11T01:00:49.441Z,16.50
2018-12-11T01:01:49.328Z,15.80
2018-12-11T01:02:49.328Z,14.70
2018-12-11T01:03:49.203Z,16.30
2018-12-11T01:04:49.204Z,11.80
2018-12-11T01:05:49.208Z,15.60
2018-12-11T01:06:49.084Z,17.30
2018-12-11T01:07:49.084Z,16.60
2018-12-11T01:08:48.960Z,15.50
2018-12-11T01:09:48.960Z,13.70
2018-12-11T01:10:48.961Z,17.40
2018-12-11T01:11:48.842Z,13.90
2018-12-11T01:12:48.841Z,17.20
2018-12-11T01:13:48.720Z,16.10
2018-12-11T01:14:48.719Z,16.40
2018-12-11T01:15:48.702Z,12.40
2018-12-11T01:16:48.599Z,15.30
2018-12-11T01:17:48.598Z,19.10
2018-12-11T01:18:48.479Z,13.10
2018-12-11T01:19:48.481Z,15.40
2018-12-11T01:20:48.357Z,19.20
2018-12-11T01:21:48.360Z,16.50
2018-12-11T01:22:48.358Z,14.20
2018-12-11T01:23:48.239Z,18.00
2018-12-11T01:24:48.245Z,11.60
2018-12-11T01:25:48.117Z,15.60
2018-12-11T01:26:48.118Z,15.40
2018-12-11T01:27:48.117Z,12.80
2018-12-11T01:28:47.997Z,10.60
2018-12-11T01:29:47.997Z,15.90
2018-12-11T01:30:47.883Z,17.90
2018-12-11T01:31:47.876Z,15.60
2018-12-11T01:32:47.873Z,15.30
2018-12-11T01:33:47.760Z,19.50
2018-12-11T01:34:47.764Z,14.60
2018-12-11T01:35:47.640Z,19.90
2018-12-11T01:36:47.634Z,19.10
2018-12-11T01:37:47.525Z,17.60
2018-12-11T01:38:47.516Z,15.90
2018-12-11T01:39:47.517Z,20.70
2018-12-11T01:40:47.394Z,15.60
2018-12-11T01:41:47.401Z,13.80
2018-12-11T01:42:47.281Z,14.40
2018-12-11T01:43:47.277Z,19.10
2018-12-11T01:44:47.280Z,16.10
2018-12-11T01:45:47.165Z,12.70
2018-12-11T01:46:47.154Z,17.00
2018-12-11T01:47:47.033Z,19.20
2018-12-11T01:48:47.043Z,19.80
2018-12-11T01:49:47.031Z,16.90
2018-12-11T01:50:46.917Z,16.40
2018-12-11T01:51:46.924Z,15.80
2018-12-11T01:52:46.799Z,15.90
2018-12-11T01:53:46.793Z,19.00
2018-12-11T01:54:46.673Z,18.30
2018-12-11T01:55:46.671Z,13.60
2018-12-11T01:56:46.671Z,15.20
2018-12-11T01:57:46.552Z,16.10
2018-12-11T01:58:46.550Z,16.40
2018-12-11T01:59:46.438Z,13.50
2018-12-11T02:00:46.460Z,17.70
2018-12-11T02:01:46.433Z,15.10
2018-12-11T02:02:46.312Z,14.90
2018-12-11T02:03:46.308Z,16.10
2018-12-11T02:04:46.195Z,12.40
2018-12-11T02:05:46.197Z,16.30
2018-12-11T02:06:46.189Z,13.30
2018-12-11T02:07:46.075Z,13.40
2018-12-11T02:08:46.067Z,14.50
2018-12-11T02:09:45.955Z,18.40
2018-12-11T02:10:45.954Z,18.60
2018-12-11T02:11:45.829Z,21.10
2018-12-11T02:12:45.827Z,17.30
2018-12-11T02:13:45.828Z,19.40
2018-12-11T02:14:45.707Z,14.20
2018-12-11T02:15:45.709Z,16.40
2018-12-11T02:16:45.586Z,19.40
2018-12-11T02:17:45.587Z,20.10
2018-12-11T02:18:45.597Z,20.30
2018-12-11T02:19:45.467Z,19.00
2018-12-11T02:20:45.474Z,18.80
2018-12-11T02:21:45.348Z,19.20
2018-12-11T02:22:45.349Z,17.60
2018-12-11T02:23:45.345Z,14.70
2018-12-11T02:24:45.227Z,21.80
2018-12-11T02:25:45.231Z,16.60
2018-12-11T02:26:45.104Z,15.80
2018-12-11T02:27:45.106Z,15.40
2018-12-11T02:28:45.075Z,17.90
2018-12-11T02:29:44.992Z,17.90
2018-12-11T02:30:44.989Z,16.30
2018-12-11T02:31:44.873Z,17.00
2018-12-11T02:32:44.872Z,15.80
2018-12-11T02:33:44.745Z,15.80
2018-12-11T02:34:44.747Z,14.40
2018-12-11T02:35:44.744Z,14.60
2018-12-11T02:36:44.626Z,12.70
2018-12-11T02:37:44.641Z,15.60
2018-12-11T02:38:44.502Z,13.50
2018-12-11T02:39:44.501Z,16.00
2018-12-11T02:40:44.504Z,16.90
2018-12-11T02:41:44.385Z,17.80
2018-12-11T02:42:44.386Z,16.80
2018-12-11T02:43:44.266Z,17.40
2018-12-11T02:44:44.266Z,15.30
2018-12-11T02:45:44.258Z,16.60
2018-12-11T02:46:44.140Z,16.20
2018-12-11T02:47:44.151Z,15.10
2018-12-11T02:48:44.025Z,21.20
2018-12-11T02:49:44.019Z,21.50
2018-12-11T02:50:43.901Z,15.80
2018-12-11T02:51:43.900Z,18.70
2018-12-11T02:52:43.903Z,19.20
2018-12-11T02:53:43.789Z,16.80
2018-12-11T02:54:43.786Z,16.60
2018-12-11T02:55:43.662Z,19.30
2018-12-11T02:56:43.663Z,17.90
2018-12-11T02:57:43.661Z,18.40
2018-12-11T02:58:43.541Z,16.50
2018-12-11T02:59:43.549Z,19.60
2018-12-11T03:00:43.420Z,15.60
2018-12-11T03:01:43.418Z,20.80
2018-12-11T03:02:43.424Z,19.70
2018-12-11T03:03:43.302Z,17.10
2018-12-11T03:04:43.297Z,18.90
2018-12-11T03:05:43.177Z,17.90
2018-12-11T03:06:43.180Z,18.50
2018-12-11T03:07:43.141Z,23.80
2018-12-11T03:08:43.063Z,19.40
2018-12-11T03:09:43.061Z,18.30
2018-12-11T03:10:42.942Z,18.30
2018-12-11T03:11:42.942Z,20.20
2018-12-11T03:12:42.819Z,19.40
2018-12-11T03:13:42.822Z,20.80
2018-12-11T03:14:42.835Z,19.50
2018-12-11T03:15:42.821Z,19.30
2018-12-11T03:16:42.700Z,20.50
2018-12-11T03:17:42.588Z,21.80
2018-12-11T03:18:42.575Z,22.30
2018-12-11T03:19:42.576Z,21.80
2018-12-11T03:20:42.467Z,18.40
2018-12-11T03:21:42.454Z,20.60
2018-12-11T03:22:42.338Z,21.70
2018-12-11T03:23:42.334Z,16.80
2018-12-11T03:24:42.337Z,17.80
2018-12-11T03:25:42.214Z,22.00
2018-12-11T03:26:42.213Z,18.70
2018-12-11T03:27:42.097Z,21.80
2018-12-11T03:28:42.097Z,17.80
2018-12-11T03:29:41.978Z,18.50
2018-12-11T03:30:42.008Z,17.80
2018-12-11T03:31:41.995Z,18.30
2018-12-11T03:32:41.853Z,15.70
2018-12-11T03:33:41.851Z,18.90
2018-12-11T03:34:41.733Z,18.20
2018-12-11T03:35:41.737Z,17.10
2018-12-11T03:36:41.738Z,20.80
2018-12-11T03:37:41.611Z,17.70
2018-12-11T03:38:41.614Z,16.40
2018-12-11T03:39:41.491Z,18.10
2018-12-11T03:40:41.509Z,16.50
2018-12-11T03:41:41.500Z,17.40
2018-12-11T03:42:41.369Z,16.20
2018-12-11T03:43:41.375Z,18.40
2018-12-11T03:44:41.250Z,16.60
2018-12-11T03:45:41.251Z,16.60
2018-12-11T03:46:41.253Z,19.20
2018-12-11T03:47:41.130Z,18.40
2018-12-11T03:48:41.129Z,17.60
2018-12-11T03:49:41.008Z,19.70
2018-12-11T03:50:41.008Z,20.70
2018-12-11T03:51:40.890Z,17.90
2018-12-11T03:52:40.893Z,22.10
2018-12-11T03:53:40.888Z,21.70
2018-12-11T03:54:40.769Z,21.00
2018-12-11T03:55:40.774Z,20.30
2018-12-11T03:56:40.650Z,20.70
2018-12-11T03:57:40.655Z,20.40
2018-12-11T03:58:40.647Z,22.60
2018-12-11T03:59:40.532Z,23.00
2018-12-11T04:00:40.534Z,22.10
2018-12-11T04:01:40.425Z,17.60
2018-12-11T04:02:40.405Z,25.00
2018-12-11T04:03:40.406Z,19.90
2018-12-11T04:04:40.297Z,25.40
2018-12-11T04:05:40.286Z,24.40
2018-12-11T04:06:40.167Z,21.40
2018-12-11T04:07:40.170Z,22.50
2018-12-11T04:08:40.166Z,24.70
2018-12-11T04:09:40.049Z,26.20
2018-12-11T04:10:40.046Z,25.40
2018-12-11T04:11:39.930Z,24.90
2018-12-11T04:12:39.924Z,24.10
2018-12-11T04:13:39.886Z,25.20
2018-12-11T04:14:39.804Z,27.60
2018-12-11T04:15:39.819Z,24.00
2018-12-11T04:16:39.686Z,22.10
2018-12-11T04:17:39.693Z,17.80
2018-12-11T04:18:39.561Z,23.70
2018-12-11T04:19:39.564Z,24.20
2018-12-11T04:20:39.567Z,20.60
2018-12-11T04:21:39.451Z,21.40
2018-12-11T04:22:39.442Z,22.00
2018-12-11T04:23:39.326Z,17.30
2018-12-11T04:24:39.324Z,18.10
2018-12-11T04:25:39.320Z,19.70
2018-12-11T04:26:39.203Z,17.30
2018-12-11T04:27:39.284Z,18.90
2018-12-11T04:28:39.083Z,16.90
2018-12-11T04:29:39.082Z,16.10
2018-12-11T04:30:39.048Z,16.20
2018-12-11T04:31:38.963Z,14.70
2018-12-11T04:32:38.969Z,19.20
2018-12-11T04:33:38.845Z,16.60
2018-12-11T04:34:38.838Z,12.50
2018-12-11T04:35:38.807Z,14.90
2018-12-11T04:36:38.719Z,17.10
2018-12-11T04:37:38.727Z,14.10
2018-12-11T04:38:38.605Z,14.80
2018-12-11T04:39:38.600Z,12.50
2018-12-11T04:40:38.484Z,14.10
2018-12-11T04:41:38.485Z,12.70
2018-12-11T04:42:38.476Z,10.30
2018-12-11T04:43:38.357Z,13.80
2018-12-11T04:44:38.360Z,16.30
2018-12-11T04:45:38.266Z,10.60
2018-12-11T04:46:38.237Z,15.30
2018-12-11T04:47:38.243Z,11.80
2018-12-11T04:48:38.122Z,11.00
2018-12-11T04:49:38.117Z,13.00
2018-12-11T04:50:37.997Z,12.00
2018-12-11T04:51:37.998Z,10.20
2018-12-11T04:52:37.877Z,13.60
2018-12-11T04:53:37.883Z,12.90
2018-12-11T04:54:37.885Z,12.70
2018-12-11T04:55:37.755Z,13.40
2018-12-11T04:56:37.764Z,12.30
2018-12-11T04:57:37.642Z,13.60
2018-12-11T04:58:37.634Z,17.70
2018-12-11T04:59:37.634Z,13.40
2018-12-11T05:00:37.514Z,13.60
2018-12-11T05:01:37.514Z,14.80
2018-12-11T05:02:37.394Z,16.20
2018-12-11T05:03:37.394Z,13.20
2018-12-11T05:04:37.398Z,13.30
2018-12-11T05:05:37.272Z,11.10
2018-12-11T05:06:37.271Z,16.70
2018-12-11T05:07:37.158Z,16.60
2018-12-11T05:08:37.158Z,16.20
2018-12-11T05:09:37.168Z,14.10
2018-12-11T05:10:37.033Z,14.70
2018-12-11T05:11:37.034Z,16.60
2018-12-11T05:12:36.917Z,14.30
2018-12-11T05:13:36.917Z,16.60
2018-12-11T05:14:36.792Z,12.80
2018-12-11T05:15:36.795Z,18.00
2018-12-11T05:16:36.795Z,20.50
2018-12-11T05:17:36.678Z,20.30
2018-12-11T05:18:36.675Z,18.30
2018-12-11T05:19:36.556Z,20.00
2018-12-11T05:20:36.558Z,17.90
2018-12-11T05:21:36.550Z,21.90
2018-12-11T05:22:36.434Z,16.70
2018-12-11T05:23:36.431Z,17.60
2018-12-11T05:24:36.307Z,18.00
2018-12-11T05:25:36.311Z,14.10
2018-12-11T05:26:36.309Z,22.60
2018-12-11T05:27:36.188Z,17.60
2018-12-11T05:28:36.188Z,15.90
2018-12-11T05:29:36.077Z,15.30
2018-12-11T05:30:36.075Z,18.10
2018-12-11T05:31:36.066Z,15.10
2018-12-11T05:32:35.947Z,18.30
2018-12-11T05:33:35.954Z,18.50
2018-12-11T05:34:35.831Z,21.10
2018-12-11T05:35:35.832Z,19.80
2018-12-11T05:36:35.706Z,17.10
2018-12-11T05:37:35.705Z,16.30
2018-12-11T05:38:35.705Z,21.70
2018-12-11T05:39:35.584Z,19.10
2018-12-11T05:40:35.587Z,24.10
2018-12-11T05:41:35.466Z,15.80
2018-12-11T05:42:35.472Z,17.90
2018-12-11T05:43:35.470Z,17.30
2018-12-11T05:44:35.345Z,20.50
2018-12-11T05:45:35.350Z,19.50
2018-12-11T05:46:35.226Z,13.40
2018-12-11T05:47:35.225Z,14.30
2018-12-11T05:48:35.226Z,14.30
2018-12-11T05:49:35.108Z,15.70
2018-12-11T05:50:35.105Z,15.20
2018-12-11T05:51:34.990Z,18.50
2018-12-11T05:52:34.983Z,18.70
2018-12-11T05:53:34.980Z,12.20
2018-12-11T05:54:34.861Z,14.40
2018-12-11T05:55:34.862Z,17.90
2018-12-11T05:56:34.750Z,15.30
2018-12-11T05:57:34.741Z,16.20
2018-12-11T05:58:34.622Z,15.30
2018-12-11T05:59:34.619Z,14.00
2018-12-11T06:00:34.625Z,19.20
2018-12-11T06:01:34.509Z,15.90
2018-12-11T06:02:34.501Z,21.00
2018-12-11T06:03:34.378Z,17.50
2018-12-11T06:04:34.379Z,16.60
2018-12-11T06:05:34.384Z,17.30
2018-12-11T06:06:34.259Z,16.20
2018-12-11T06:07:34.265Z,15.20
2018-12-11T06:08:34.137Z,17.10
2018-12-11T06:09:34.138Z,11.40
2018-12-11T06:10:34.146Z,19.10
2018-12-11T06:11:34.019Z,16.30
2018-12-11T06:12:34.017Z,19.80
2018-12-11T06:13:33.912Z,16.70
2018-12-11T06:14:33.907Z,18.40
2018-12-11T06:15:33.906Z,13.80
2018-12-11T06:16:33.777Z,15.00
2018-12-11T06:17:33.781Z,12.80
2018-12-11T06:18:33.655Z,15.90
2018-12-11T06:19:33.655Z,15.10
2018-12-11T06:20:34.557Z,14.90
2018-12-11T06:21:33.537Z,12.60
2018-12-11T06:22:33.535Z,13.90
2018-12-11T06:23:33.415Z,13.40
2018-12-11T06:24:33.415Z,15.90
2018-12-11T06:25:33.297Z,21.10
2018-12-11T06:26:33.299Z,17.10
2018-12-11T06:27:33.293Z,14.50
2018-12-11T06:28:33.174Z,19.40
2018-12-11T06:29:33.173Z,17.60
2018-12-11T06:30:33.055Z,13.10
2018-12-11T06:31:33.053Z,15.50
2018-12-11T06:32:33.051Z,14.20
2018-12-11T06:33:32.934Z,14.40
2018-12-11T06:34:32.933Z,15.10
2018-12-11T06:35:32.813Z,15.50
2018-12-11T06:36:32.811Z,15.90
2018-12-11T06:37:32.812Z,18.70
2018-12-11T06:38:32.689Z,18.50
2018-12-11T06:39:32.698Z,16.60
2018-12-11T06:40:32.576Z,17.10
2018-12-11T06:41:32.579Z,14.20
2018-12-11T06:42:32.450Z,14.60
2018-12-11T06:43:32.448Z,16.30
2018-12-11T06:44:32.455Z,17.20
2018-12-11T06:45:32.330Z,18.20
2018-12-11T06:46:32.331Z,16.20
2018-12-11T06:47:32.210Z,22.10
2018-12-11T06:48:32.211Z,14.70
2018-12-11T06:49:32.214Z,14.80
2018-12-11T06:50:32.088Z,13.50
2018-12-11T06:51:32.086Z,16.30
2018-12-11T06:52:31.969Z,15.60
2018-12-11T06:53:31.982Z,15.00
2018-12-11T06:54:31.974Z,13.10
2018-12-11T06:55:31.847Z,13.70
2018-12-11T06:56:31.845Z,13.30
2018-12-11T06:57:31.729Z,15.60
2018-12-11T06:58:31.740Z,13.70
2018-12-11T06:59:31.729Z,15.10
2018-12-11T07:00:31.610Z,15.30
2018-12-11T07:01:31.614Z,14.70
2018-12-11T07:02:31.484Z,18.00
2018-12-11T07:03:31.485Z,19.00
2018-12-11T07:04:31.370Z,15.10
2018-12-11T07:05:31.372Z,14.20
2018-12-11T07:06:31.369Z,17.80
2018-12-11T07:07:31.243Z,13.10
2018-12-11T07:08:31.248Z,15.60
2018-12-11T07:09:31.121Z,14.40
2018-12-11T07:10:31.128Z,13.40
2018-12-11T07:11:31.126Z,19.50
2018-12-11T07:12:31.006Z,19.80
2018-12-11T07:13:31.027Z,19.40
2018-12-11T07:14:30.885Z,14.60
2018-12-11T07:15:30.886Z,15.10
2018-12-11T07:16:30.883Z,17.10
2018-12-11T07:17:30.767Z,16.10
2018-12-11T07:18:30.766Z,15.30
2018-12-11T07:19:30.648Z,17.50
2018-12-11T07:20:30.641Z,17.70
2018-12-11T07:21:30.602Z,18.00
2018-12-11T07:22:30.521Z,18.90
2018-12-11T07:23:30.526Z,16.30
2018-12-11T07:24:30.404Z,22.30
2018-12-11T07:25:30.413Z,20.00
2018-12-11T07:26:30.289Z,20.90
2018-12-11T07:27:30.288Z,19.00
2018-12-11T07:28:30.286Z,22.90
2018-12-11T07:29:30.158Z,20.50
2018-12-11T07:30:30.162Z,17.20
2018-12-11T07:31:30.073Z,23.20
2018-12-11T07:32:30.051Z,18.90
2018-12-11T07:33:30.040Z,15.90
2018-12-11T07:34:29.921Z,19.70
2018-12-11T07:35:29.916Z,18.10
2018-12-11T07:36:29.796Z,18.10
2018-12-11T07:37:29.797Z,21.00
2018-12-11T07:38:29.802Z,18.90
2018-12-11T07:39:29.676Z,17.90
2018-12-11T07:40:29.675Z,22.30
2018-12-11T07:41:29.568Z,18.10
2018-12-11T07:42:29.555Z,18.20
2018-12-11T07:43:29.434Z,18.80
2018-12-11T07:44:29.434Z,18.40
2018-12-11T07:45:29.434Z,17.50
2018-12-11T07:46:29.313Z,17.80
2018-12-11T07:47:29.321Z,14.20
2018-12-11T07:48:29.196Z,13.50
2018-12-11T07:49:29.192Z,20.40
2018-12-11T07:50:29.193Z,13.70
2018-12-11T07:51:29.081Z,16.30
2018-12-11T07:52:29.071Z,8.70
2018-12-11T07:53:28.953Z,10.20
2018-12-11T07:54:28.953Z,13.20
2018-12-11T07:55:28.955Z,12.60
2018-12-11T07:56:28.830Z,14.30
2018-12-11T07:57:28.831Z,9.20
2018-12-11T07:58:28.709Z,9.60
2018-12-11T07:59:28.709Z,11.50
2018-12-11T08:00:28.591Z,12.30
2018-12-11T08:01:28.591Z,8.60
2018-12-11T08:02:28.589Z,10.40
2018-12-11T08:03:28.525Z,10.60
2018-12-11T08:04:28.476Z,10.10
2018-12-11T08:05:28.350Z,13.70
2018-12-11T08:06:28.349Z,13.00
2018-12-11T08:07:28.354Z,11.20
2018-12-11T08:08:28.227Z,11.20
2018-12-11T08:09:28.229Z,10.70
2018-12-11T08:10:28.117Z,13.50
2018-12-11T08:11:28.110Z,11.80
2018-12-11T08:12:28.106Z,12.10
2018-12-11T08:13:27.988Z,9.10
2018-12-11T08:14:27.988Z,13.10
2018-12-11T08:15:27.869Z,13.90
2018-12-11T08:16:27.867Z,11.60
2018-12-11T08:17:27.833Z,11.10
2018-12-11T08:18:27.750Z,9.90
2018-12-11T08:19:27.749Z,11.20
2018-12-11T08:20:27.627Z,9.40
2018-12-11T08:21:27.625Z,10.20
2018-12-11T08:22:27.588Z,9.00
2018-12-11T08:23:27.504Z,16.20
2018-12-11T08:24:27.505Z,21.90
2018-12-11T08:25:27.386Z,10.70
2018-12-11T08:26:27.391Z,12.90
2018-12-11T08:27:27.265Z,9.80
2018-12-11T08:28:27.264Z,11.20
2018-12-11T08:29:27.266Z,11.40
2018-12-11T08:30:27.150Z,10.40
2018-12-11T08:31:27.142Z,14.90
2018-12-11T08:32:27.024Z,12.60
2018-12-11T08:33:27.023Z,12.10
2018-12-11T08:34:27.033Z,12.20
2018-12-11T08:35:26.903Z,11.30
2018-12-11T08:36:26.902Z,14.00
2018-12-11T08:37:26.784Z,11.60
2018-12-11T08:38:26.785Z,13.10
2018-12-11T08:39:27.163Z,15.70
2018-12-11T08:40:26.667Z,12.80
2018-12-11T08:41:26.666Z,14.90
2018-12-11T08:42:26.541Z,10.80
2018-12-11T08:43:26.540Z,10.30
2018-12-11T08:44:26.419Z,12.10
2018-12-11T08:45:26.472Z,9.10
2018-12-11T08:46:26.422Z,16.30
2018-12-11T08:47:26.300Z,10.10
2018-12-11T08:48:26.307Z,14.70
2018-12-11T08:49:26.180Z,14.80
2018-12-11T08:50:26.179Z,10.60
2018-12-11T08:51:26.180Z,12.90
2018-12-11T08:53:13.554Z,10.40
2018-12-11T08:54:13.347Z,10.00
2018-12-11T08:55:13.301Z,11.10
2018-12-11T08:56:13.249Z,10.20
2018-12-11T08:57:13.199Z,9.00
2018-12-11T08:58:13.153Z,8.50
2018-12-11T08:59:13.099Z,14.80
2018-12-11T09:00:13.052Z,11.70
2018-12-11T09:01:13.003Z,8.90
2018-12-11T09:02:12.954Z,11.80
2018-12-11T09:03:12.911Z,12.90
2018-12-11T09:04:12.856Z,13.70
2018-12-11T09:05:12.804Z,13.00
2018-12-11T09:06:12.761Z,14.40
2018-12-11T09:07:12.715Z,7.60
2018-12-11T09:08:12.670Z,11.60
2018-12-11T09:09:12.612Z,12.60
2018-12-11T09:10:12.579Z,11.30
2018-12-11T09:11:12.508Z,12.50
2018-12-11T09:12:12.459Z,11.90
2018-12-11T09:13:12.411Z,9.90
2018-12-11T09:14:12.362Z,9.90
2018-12-11T09:15:12.316Z,11.20
2018-12-11T09:16:12.342Z,14.00
2018-12-11T09:17:12.213Z,9.60
2018-12-11T09:18:12.266Z,9.60
2018-12-11T09:19:12.143Z,9.90
2018-12-11T09:20:12.138Z,11.50
2018-12-11T09:21:12.021Z,10.20
2018-12-11T09:22:12.018Z,10.00
2018-12-11T09:23:12.027Z,12.20
2018-12-11T09:24:11.898Z,8.90
2018-12-11T09:25:11.899Z,7.70
2018-12-11T09:26:11.778Z,9.80
2018-12-11T09:27:11.776Z,9.40
2018-12-11T09:28:11.860Z,11.00
2018-12-11T09:29:11.659Z,10.80
2018-12-11T09:30:11.667Z,9.30
2018-12-11T09:31:11.543Z,9.70
2018-12-11T09:32:11.544Z,9.50
2018-12-11T09:33:11.536Z,10.00
2018-12-11T09:34:11.417Z,8.30
2018-12-11T09:35:11.415Z,8.20
2018-12-11T09:36:11.303Z,15.50
2018-12-11T09:37:11.304Z,8.50
2018-12-11T09:38:11.259Z,11.30
2018-12-11T09:39:11.181Z,12.30
2018-12-11T09:40:11.184Z,6.60
2018-12-11T09:41:11.057Z,8.60
2018-12-11T09:42:11.061Z,10.60
2018-12-11T09:43:10.934Z,10.80
2018-12-11T09:44:10.933Z,10.00
2018-12-11T09:45:10.941Z,8.50
2018-12-11T09:46:10.828Z,11.10
2018-12-11T09:47:10.815Z,10.70
2018-12-11T09:48:10.698Z,9.80
2018-12-11T09:49:10.692Z,9.30
2018-12-11T09:50:10.699Z,9.00
2018-12-11T09:51:10.578Z,7.70
2018-12-11T09:52:10.578Z,12.20
2018-12-11T09:53:10.452Z,9.10
2018-12-11T09:54:10.453Z,9.40
2018-12-11T09:55:10.450Z,8.70
2018-12-11T09:56:10.331Z,7.30
2018-12-11T09:57:10.330Z,12.70
2018-12-11T09:58:10.211Z,10.80
2018-12-11T09:59:10.212Z,9.70
2018-12-11T10:00:10.210Z,10.00
2018-12-11T10:01:10.092Z,12.30
2018-12-11T10:02:10.100Z,11.70
2018-12-11T10:03:09.970Z,11.60
2018-12-11T10:04:09.975Z,11.00
2018-12-11T10:05:09.976Z,7.90
2018-12-11T10:06:09.848Z,9.30
2018-12-11T10:07:09.849Z,13.50
2018-12-11T10:08:09.732Z,9.00
2018-12-11T10:09:09.734Z,9.10
2018-12-11T10:10:09.728Z,8.10
2018-12-11T10:11:09.617Z,8.90
2018-12-11T10:12:09.608Z,10.60
2018-12-11T10:13:09.487Z,10.00
2018-12-11T10:14:09.495Z,14.90
2018-12-11T10:15:09.489Z,8.50
2018-12-11T10:16:09.368Z,7.30
2018-12-11T10:17:09.375Z,11.00
2018-12-11T10:18:09.246Z,8.60
2018-12-11T10:19:09.252Z,10.40
2018-12-11T10:20:09.249Z,9.10
2018-12-11T10:21:09.133Z,9.60
2018-12-11T10:22:09.125Z,10.50
2018-12-11T10:23:09.015Z,7.70
2018-12-11T10:24:09.013Z,8.90
2018-12-11T10:25:08.886Z,10.30
2018-12-11T10:26:08.887Z,6.30
2018-12-11T10:27:08.884Z,9.80
2018-12-11T10:28:08.778Z,9.50
2018-12-11T10:29:08.772Z,10.70
2018-12-11T10:30:08.645Z,11.00
2018-12-11T10:31:08.648Z,9.70
2018-12-11T10:32:08.643Z,8.30
2018-12-11T10:33:08.530Z,9.00
2018-12-11T10:34:08.536Z,10.40
2018-12-11T10:35:08.403Z,8.00
2018-12-11T10:36:08.410Z,8.70
2018-12-11T10:37:08.409Z,11.30
2018-12-11T10:38:08.289Z,9.70
2018-12-11T10:39:08.281Z,10.30
2018-12-11T10:40:08.171Z,6.70
2018-12-11T10:41:08.207Z,7.30
2018-12-11T10:42:08.161Z,11.40
2018-12-11T10:43:08.040Z,9.50
2018-12-11T10:44:08.039Z,9.70
2018-12-11T10:45:07.921Z,9.20
2018-12-11T10:46:07.924Z,10.90
2018-12-11T10:47:07.919Z,8.40
2018-12-11T10:48:07.799Z,11.70
2018-12-11T10:49:07.798Z,9.20
2018-12-11T10:50:07.680Z,10.90
2018-12-11T10:51:07.678Z,8.50
2018-12-11T10:52:07.686Z,10.50
2018-12-11T10:53:07.560Z,10.60
2018-12-11T10:54:07.562Z,7.50
2018-12-11T10:55:07.437Z,8.50
2018-12-11T10:56:07.446Z,8.80
2018-12-11T10:57:07.438Z,8.60
2018-12-11T10:58:07.317Z,8.50
2018-12-11T10:59:07.321Z,10.10
2018-12-11T11:00:07.196Z,7.00
2018-12-11T11:01:07.196Z,8.40
2018-12-11T11:02:07.205Z,9.60
2018-12-11T11:03:07.075Z,9.00
2018-12-11T11:04:07.078Z,9.80
2018-12-11T11:05:06.955Z,9.50
2018-12-11T11:06:06.955Z,6.80
2018-12-11T11:07:06.966Z,6.30
2018-12-11T11:08:06.834Z,6.60
2018-12-11T11:09:06.834Z,11.50
2018-12-11T11:10:06.730Z,6.80
2018-12-11T11:11:06.715Z,7.20
2018-12-11T11:12:06.717Z,9.30
2018-12-11T11:13:06.598Z,9.70
2018-12-11T11:14:06.595Z,9.50
2018-12-11T11:15:06.474Z,5.90
2018-12-11T11:16:06.473Z,6.80
2018-12-11T11:17:06.481Z,6.90
2018-12-11T11:18:06.360Z,6.20
2018-12-11T11:19:06.359Z,7.70
2018-12-11T11:20:06.231Z,11.00
2018-12-11T11:21:06.231Z,8.70
2018-12-11T11:22:06.233Z,8.60
2018-12-11T11:23:06.112Z,6.90
2018-12-11T11:24:06.122Z,7.40
2018-12-11T11:25:05.999Z,7.00
2018-12-11T11:26:05.996Z,7.00
2018-12-11T11:27:05.990Z,8.20
2018-12-11T11:28:05.880Z,7.00
2018-12-11T11:29:05.875Z,8.60
2018-12-11T11:30:05.749Z,8.20
2018-12-11T11:31:05.752Z,9.40
2018-12-11T11:32:05.750Z,9.20
2018-12-11T11:33:05.637Z,79.50
2018-12-11T11:34:05.633Z,21.40
2018-12-11T11:35:05.512Z,9.50
2018-12-11T11:36:05.508Z,6.60
2018-12-11T11:37:05.516Z,8.10
2018-12-11T11:38:05.387Z,5.70
2018-12-11T11:39:05.387Z,6.70
2018-12-11T11:40:05.275Z,4.10
2018-12-11T11:41:05.275Z,6.60
2018-12-11T11:42:05.275Z,7.30
2018-12-11T11:43:05.156Z,6.70
2018-12-11T11:44:05.154Z,6.20
2018-12-11T11:45:05.039Z,7.40
2018-12-11T11:46:05.030Z,7.60
2018-12-11T11:47:05.025Z,7.20
2018-12-11T11:48:04.908Z,9.90
2018-12-11T11:49:04.919Z,7.10
2018-12-11T11:50:04.785Z,7.10
2018-12-11T11:51:04.783Z,8.50
2018-12-11T11:52:04.785Z,8.50
2018-12-11T11:53:04.666Z,8.60
2018-12-11T11:54:04.665Z,6.50
2018-12-11T11:55:04.544Z,7.90
2018-12-11T11:56:04.547Z,6.50
2018-12-11T11:57:04.545Z,8.50
2018-12-11T11:58:04.423Z,7.60
2018-12-11T11:59:04.433Z,9.60
2018-12-11T12:00:04.303Z,7.50
2018-12-11T12:01:04.309Z,8.40
2018-12-11T12:02:04.307Z,8.20
2018-12-11T12:03:04.183Z,9.40
2018-12-11T12:04:04.187Z,10.50
2018-12-11T12:05:04.061Z,8.20
2018-12-11T12:06:04.062Z,9.60
2018-12-11T12:07:04.063Z,8.50
2018-12-11T12:08:03.941Z,6.60
2018-12-11T12:09:03.942Z,8.80
2018-12-11T12:10:03.826Z,6.00
2018-12-11T12:11:03.819Z,9.60
2018-12-11T12:12:03.822Z,8.50
2018-12-11T12:13:03.704Z,8.50
2018-12-11T12:14:03.704Z,6.40
2018-12-11T12:15:03.580Z,7.30
2018-12-11T12:16:03.581Z,8.20
2018-12-11T12:17:03.579Z,7.60
2018-12-11T12:18:03.458Z,10.00
2018-12-11T12:19:03.463Z,9.40
2018-12-11T12:20:03.346Z,10.90
2018-12-11T12:21:03.340Z,8.50
2018-12-11T12:22:03.345Z,9.80
2018-12-11T12:23:03.229Z,12.00
2018-12-11T12:24:03.217Z,7.60
2018-12-11T12:25:03.105Z,11.90
2018-12-11T12:26:03.096Z,13.60
2018-12-11T12:27:03.105Z,11.80
2018-12-11T12:28:02.984Z,13.10
2018-12-11T12:29:02.981Z,7.10
2018-12-11T12:30:02.972Z,9.90
2018-12-11T12:31:02.855Z,14.80
2018-12-11T12:32:02.859Z,9.30
2018-12-11T12:33:02.745Z,9.10
2018-12-11T12:34:02.736Z,10.40
2018-12-11T12:35:02.736Z,10.20
2018-12-11T12:36:02.617Z,13.40
2018-12-11T12:37:02.626Z,16.30
2018-12-11T12:38:02.496Z,13.80
2018-12-11T12:39:02.499Z,10.30
2018-12-11T12:40:02.494Z,10.40
2018-12-11T12:41:02.375Z,14.40
2018-12-11T12:42:02.376Z,14.10
2018-12-11T12:43:02.253Z,12.80
2018-12-11T12:44:02.259Z,12.20
2018-12-11T12:45:02.259Z,9.10
2018-12-11T12:46:02.132Z,9.90
2018-12-11T12:47:02.133Z,11.20
2018-12-11T12:48:02.024Z,9.60
2018-12-11T12:49:02.014Z,11.10
2018-12-11T12:50:02.014Z,15.00
2018-12-11T12:51:01.898Z,13.00
2018-12-11T12:52:01.899Z,11.20
2018-12-11T12:53:01.770Z,10.70
2018-12-11T12:54:01.773Z,12.90
2018-12-11T12:55:01.772Z,11.00
2018-12-11T12:56:01.655Z,12.30
2018-12-11T12:57:01.667Z,11.40
2018-12-11T12:58:01.543Z,15.00